Weather History for KSTF - February, 2013

Change the Weather History Date:

Sunday, February 3, 2013

  Actual Average Record
Temperature  
Mean Temperature 45 °F -  
Max Temperature 60 °F 54 °F 60 °F (2013)
Min Temperature 30 °F 33 °F 24 °F (2015)
Degree Days  
Heating Degree Days 20    
Moisture  
Dew Point 31 °F    
Average Humidity 68    
Maximum Humidity 100    
Minimum Humidity 27    
Precipitation  
Precipitation 0.00 in - - ()
Sea Level Pressure  
Sea Level Pressure 30.17 in    
Wind  
Wind Speed 2 mph (WNW)    
Max Wind Speed 13 mph    
Max Gust Speed 22 mph    
Visibility 9 miles    
Events      
Averages and records for this station are not official NWS values.
T = Trace of Precipitation, MM = Missing Value Source: NWS Daily Summary

Daily Weather History Graph

Daily Weather History Graph

Search for Another Location

Airport or City:

Trip Planner

Search our weather history database for the weather conditions in past years. The results will help you decide how hot, cold, wet, or windy it might be!

Date:

Astronomy

Feb. 03, 2013 Rise Set
Actual Time 6:49 AM CST 5:29 PM CST
Civil Twilight 6:23 AM CST 5:55 PM CST
Nautical Twilight 5:54 AM CST 6:24 PM CST
Astronomical Twilight 5:25 AM CST 6:53 PM CST
Moon 12:16 AM CST (2/3) 11:08 AM CST (2/3)
Length of Visible Light 11h 31m
Length of Day
10h 39m
Waning Gibbous, 48% of the Moon is Illuminated
Feb 3
Waning Gibbous
Feb 10
New
Feb 17
First Quarter
Feb 25
Full
Mar 4
Last Quarter

Hourly Weather History & Observations

Time (CST) Temp. Windchill Dew Point Humidity Pressure Visibility Wind Dir Wind Speed Gust Speed Precip Events Conditions
12:15 AM 32.0 °F - 32.0 °F 100% 30.22 in 4.0 mi Calm Calm - N/A   Clear
12:35 AM 32.0 °F - 32.0 °F 100% 30.21 in 1.0 mi Calm Calm - N/A   Mist
12:55 AM 32.0 °F - 32.0 °F 100% 30.21 in 4.0 mi Calm Calm - N/A   Clear
1:15 AM 32.0 °F - 30.2 °F 93% 30.20 in 7.0 mi Calm Calm - N/A   Clear
1:35 AM 30.2 °F - 30.2 °F 100% 30.21 in 7.0 mi Calm Calm - N/A   Clear
1:55 AM 30.2 °F - 30.2 °F 100% 30.20 in 10.0 mi Calm Calm - N/A   Clear
2:15 AM 30.2 °F - 30.2 °F 100% 30.20 in 7.0 mi Calm Calm - N/A   Clear
2:35 AM 30.2 °F - 30.2 °F 100% 30.19 in 5.0 mi Calm Calm - N/A   Clear
2:55 AM 30.2 °F - 30.2 °F 100% 30.19 in 5.0 mi Calm Calm - N/A   Clear
3:15 AM 30.2 °F - 30.2 °F 100% 30.19 in 7.0 mi Calm Calm - N/A   Clear
3:35 AM 30.2 °F - 30.2 °F 100% 30.18 in 10.0 mi Calm Calm - N/A   Clear
3:55 AM 30.2 °F - 30.2 °F 100% 30.19 in 7.0 mi Calm Calm - N/A   Clear
4:15 AM 30.2 °F - 30.2 °F 100% 30.18 in 5.0 mi Calm Calm - N/A   Clear
4:35 AM 30.2 °F - 30.2 °F 100% 30.18 in 7.0 mi Calm Calm - N/A   Clear
4:55 AM 30.2 °F - 30.2 °F 100% 30.18 in 10.0 mi Calm Calm - N/A   Clear
5:15 AM 30.2 °F - 30.2 °F 100% 30.18 in 10.0 mi Calm Calm - N/A   Clear
5:35 AM 30.2 °F - 30.2 °F 100% 30.18 in 10.0 mi Calm Calm - N/A   Clear
5:55 AM 30.2 °F - 30.2 °F 100% 30.19 in 10.0 mi Calm Calm - N/A   Clear
6:15 AM 30.2 °F - 28.4 °F 93% 30.18 in 10.0 mi Calm Calm - N/A   Clear
6:35 AM 30.2 °F - 28.4 °F 93% 30.18 in 10.0 mi Calm Calm - N/A   Clear
6:55 AM 32.0 °F - 32.0 °F 100% 30.19 in 10.0 mi Calm Calm - N/A   Clear
7:15 AM 33.8 °F - 32.0 °F 93% 30.19 in 10.0 mi Calm Calm - N/A   Clear
7:35 AM 35.6 °F 32.8 °F 33.8 °F 93% 30.19 in 10.0 mi SW 3.5 mph - N/A   Clear
7:55 AM 37.4 °F 34.9 °F 33.8 °F 87% 30.20 in 10.0 mi West 3.5 mph - N/A   Clear
8:15 AM 39.2 °F 37.0 °F 35.6 °F 87% 30.20 in 10.0 mi West 3.5 mph - N/A   Clear
8:35 AM 42.8 °F 39.3 °F 37.4 °F 81% 30.21 in 10.0 mi WSW 5.8 mph - N/A   Clear
8:55 AM 44.6 °F 41.4 °F 37.4 °F 76% 30.21 in 10.0 mi WSW 5.8 mph - N/A   Clear
9:15 AM 48.2 °F - 39.2 °F 71% 30.21 in 10.0 mi WNW 5.8 mph - N/A   Clear
9:35 AM 51.8 °F - 35.6 °F 54% 30.21 in 10.0 mi WNW 8.1 mph 17.3 mph N/A   Clear
9:55 AM 51.8 °F - 33.8 °F 50% 30.22 in 10.0 mi NW 10.4 mph - N/A   Clear
10:15 AM 51.8 °F - 35.6 °F 54% 30.21 in 10.0 mi NNW 6.9 mph - N/A   Clear
10:35 AM 53.6 °F - 35.6 °F 51% 30.21 in 10.0 mi NW 4.6 mph - N/A   Clear
10:55 AM 55.4 °F - 33.8 °F 44% 30.20 in 10.0 mi NW 10.4 mph - N/A   Clear
11:15 AM 55.4 °F - 32.0 °F 41% 30.19 in 10.0 mi NW 6.9 mph - N/A   Clear
11:35 AM 59.0 °F - 32.0 °F 36% 30.19 in 10.0 mi WNW 3.5 mph - N/A   Clear
11:55 AM 59.0 °F - 30.2 °F 34% 30.19 in 10.0 mi WNW 8.1 mph 18.4 mph N/A   Clear
12:15 PM 59.0 °F - 32.0 °F 36% 30.17 in 10.0 mi West 6.9 mph - N/A   Clear
12:35 PM 59.0 °F - 30.2 °F 34% 30.17 in 10.0 mi WNW 11.5 mph 19.6 mph N/A   Clear
12:55 PM 59.0 °F - 30.2 °F 34% 30.15 in 10.0 mi WNW 12.7 mph 20.7 mph N/A   Clear
1:15 PM 59.0 °F - 28.4 °F 31% 30.14 in 10.0 mi West 12.7 mph 21.9 mph N/A   Clear
1:35 PM 59.0 °F - 28.4 °F 31% 30.14 in 10.0 mi West 12.7 mph 18.4 mph N/A   Clear
2:15 PM 60.8 °F - 30.2 °F 31% 30.12 in 10.0 mi West 6.9 mph - N/A   Clear
2:35 PM 60.8 °F - 30.2 °F 31% 30.13 in 10.0 mi West 9.2 mph - N/A   Clear
2:55 PM 60.8 °F - 28.4 °F 29% 30.13 in 10.0 mi WNW 10.4 mph 17.3 mph N/A   Clear
3:15 PM 60.8 °F - 28.4 °F 29% 30.13 in 10.0 mi West 9.2 mph 17.3 mph N/A   Clear
3:35 PM 60.8 °F - 26.6 °F 27% 30.13 in 10.0 mi West 9.2 mph 19.6 mph N/A   Clear
3:55 PM 59.0 °F - 28.4 °F 31% 30.12 in 10.0 mi WNW 9.2 mph 18.4 mph N/A   Clear
4:15 PM 59.0 °F - 24.8 °F 27% 30.12 in 10.0 mi NW 11.5 mph 17.3 mph N/A   Clear
4:55 PM 55.4 °F - 26.6 °F 33% 30.14 in 10.0 mi WNW 8.1 mph - N/A   Clear
5:15 PM 53.6 °F - 26.6 °F 35% 30.14 in 10.0 mi WNW 6.9 mph - N/A   Clear
5:35 PM 53.6 °F - 26.6 °F 35% 30.14 in 10.0 mi WNW 5.8 mph - N/A   Clear
5:55 PM 51.8 °F - 28.4 °F 41% 30.14 in 10.0 mi WNW 5.8 mph - N/A   Clear
6:15 PM 51.8 °F - 28.4 °F 41% 30.14 in 10.0 mi NW 3.5 mph - N/A   Clear
6:35 PM 50.0 °F - 30.2 °F 47% 30.16 in 10.0 mi WNW 3.5 mph - N/A   Clear
6:55 PM 50.0 °F - 30.2 °F 47% 30.16 in 10.0 mi Calm Calm - N/A   Clear
7:15 PM 46.4 °F - 30.2 °F 53% 30.16 in 10.0 mi Calm Calm - N/A   Clear
7:35 PM 46.4 °F 44.3 °F 30.2 °F 53% 30.16 in 10.0 mi WNW 4.6 mph - N/A   Clear
7:55 PM 46.4 °F 45.2 °F 30.2 °F 53% 30.17 in 10.0 mi NW 3.5 mph - N/A   Clear
8:15 PM 44.6 °F - 30.2 °F 57% 30.17 in 10.0 mi Calm Calm - N/A   Clear
8:35 PM 41.0 °F - 32.0 °F 70% 30.17 in 10.0 mi Calm Calm - N/A   Clear
8:55 PM 41.0 °F - 30.2 °F 65% 30.17 in 10.0 mi Calm Calm - N/A   Clear
9:15 PM 41.0 °F - 32.0 °F 70% 30.17 in 10.0 mi Calm Calm - N/A   Clear
9:35 PM 37.4 °F - 32.0 °F 81% 30.17 in 10.0 mi Calm Calm - N/A   Clear
9:55 PM 35.6 °F - 32.0 °F 87% 30.16 in 10.0 mi Calm Calm - N/A   Clear
10:15 PM 35.6 °F - 30.2 °F 81% 30.16 in 10.0 mi Calm Calm - N/A   Clear
10:35 PM 33.8 °F - 32.0 °F 93% 30.16 in 10.0 mi Calm Calm - N/A   Clear
10:55 PM 33.8 °F - 30.2 °F 87% 30.15 in 10.0 mi Calm Calm - N/A   Clear
11:15 PM 33.8 °F - 30.2 °F 87% 30.14 in 10.0 mi Calm Calm - N/A   Clear
11:35 PM 32.0 °F - 30.2 °F 93% 30.14 in 10.0 mi Calm Calm - N/A   Clear